Terminal Aerodrome Forecast
Issued by NWS

Home | Current Version | Previous Version | Text Only | Print | Product List | Glossary On
Versions: 1 2 3 4 5 6 7 8 9 10 11 12 13 14 15 16 17 18 19 20 21 22 23 24 25 26
000
FTUS44 KEWX 180500
TAFSSF
TAF
KSSF 180520Z 1806/1906 12007KT P6SM SCT070
      TEMPO 1810/1814 -TSRA BKN020CB
     FM181500 17007KT P6SM VCTS BKN030CB
     FM182100 10008KT P6SM VCTS BKN040CB
     FM190200 07005KT P6SM BKN050=

USA.gov is the U.S. government's official web portal to all federal, state and local government web resources and services.